Time;durP1;ratioP1;P1;durP2;ratioP2;P2;SDS_P1;SDS_P2;PMS_P1;PMS_P2;Temp;Humidity;BMP_temperature;BMP_pressure;BME280_temperature;BME280_humidity;BME280_pressure;Samples;Min_cycle;Max_cycle;Signal;HPM_P1;HPM_P2
2022/09/07 00:02:25;;;;;;;;;;;;;;;;;;;;;
2022/09/07 00:05:49;;;;;;;;;;;;;;;;;;;;;
2022/09/07 00:09:17;;;;;;;;;;;;;;;;;;;;;
2022/09/07 00:12:09;;;;;;;11.60;4.30;;;;;;;14.70;64.95;99155.98;105737;1283;22670;-86
2022/09/07 00:14:38;;;;;;;12.00;4.20;;;;;;;14.66;64.95;99156.84;105684;1283;22863;-88
2022/09/07 00:17:15;;;;;;;13.00;4.30;;;;;;;14.63;64.99;99153.92;105290;1283;23285;-90
2022/09/07 00:19:47;;;;;;;12.90;4.70;;;;;;;14.60;65.07;99155.59;105259;1283;25536;-86
2022/09/07 00:22:13;;;;;;;13.00;4.30;;;;;;;14.58;65.14;99154.29;105648;1283;22587;-87
2022/09/07 00:24:43;;;;;;;11.70;3.90;;;;;;;14.58;65.18;99155.02;101730;1283;5334029;-84
2022/09/07 00:27:15;;;;;;;12.20;4.60;;;;;;;14.60;65.29;99153.81;105557;1283;24250;-87
2022/09/07 00:29:49;;;;;;;11.60;4.60;;;;;;;14.60;65.30;99150.77;105361;1284;25347;-86
2022/09/07 00:32:29;;;;;;;14.30;5.30;;;;;;;14.60;65.27;99153.42;105561;1283;22559;-88
2022/09/07 00:35:05;;;;;;;12.70;5.30;;;;;;;14.58;65.33;99151.43;105558;1283;25519;-86
2022/09/07 00:37:40;;;;;;;11.80;5.80;;;;;;;14.55;65.29;99154.23;105475;1283;22569;-90
2022/09/07 00:40:15;;;;;;;14.10;5.30;;;;;;;14.51;65.31;99157.27;105789;1277;24224;-86
2022/09/07 00:42:53;;;;;;;12.30;5.90;;;;;;;14.47;65.29;99157.66;105916;1277;22565;-88
2022/09/07 00:45:35;;;;;;;12.40;5.60;;;;;;;14.42;65.37;99156.05;105969;1277;24298;-86
2022/09/07 00:48:09;;;;;;;12.20;5.50;;;;;;;14.38;65.49;99153.59;105922;1276;25342;-86
2022/09/07 00:50:53;;;;;;;12.50;5.60;;;;;;;14.36;65.55;99150.13;105832;1276;23985;-87
2022/09/07 00:53:54;;;;;;;11.70;5.80;;;;;;;14.32;65.34;99149.04;105981;1277;25235;-90
2022/09/07 00:56:30;;;;;;;13.90;5.90;;;;;;;14.25;65.59;99151.58;105983;1277;24278;-86
2022/09/07 00:59:06;;;;;;;13.90;5.70;;;;;;;14.24;65.69;99151.72;105940;1280;25369;-88
2022/09/07 01:01:34;;;;;;;13.60;5.70;;;;;;;14.23;65.76;99147.78;105889;1276;23952;-85
2022/09/07 01:04:10;;;;;;;12.60;5.40;;;;;;;14.22;65.79;99141.82;105824;1276;22567;-86
2022/09/07 01:06:38;;;;;;;16.60;5.80;;;;;;;14.20;65.71;99138.41;105884;1277;22535;-87
2022/09/07 01:09:18;;;;;;;16.40;5.90;;;;;;;14.15;65.74;99135.61;105969;1276;22544;-87
2022/09/07 01:11:49;;;;;;;13.00;6.10;;;;;;;14.12;65.79;99136.11;105912;1277;25581;-87
2022/09/07 01:14:43;;;;;;;12.90;5.40;;;;;;;14.10;65.76;99134.66;105953;1277;24347;-90
2022/09/07 01:18:04;;;;;;;13.40;6.40;;;;;;;14.04;65.74;99139.21;105879;1277;22611;-87
2022/09/07 01:20:54;;;;;;;11.60;6.60;;;;;;;14.01;65.81;99132.16;106018;1276;22549;-86
2022/09/07 01:23:51;;;;;;;16.20;7.10;;;;;;;14.04;65.99;99130.83;105981;1277;22534;-85
2022/09/07 01:26:56;;;;;;;15.50;7.40;;;;;;;14.08;66.09;99131.44;105941;1276;22553;-86
2022/09/07 01:29:55;;;;;;;17.40;6.40;;;;;;;14.07;66.09;99129.69;105912;1277;22839;-88
2022/09/07 01:32:45;;;;;;;12.10;6.10;;;;;;;14.05;66.05;99125.19;105886;1280;22636;-86
2022/09/07 01:35:28;;;;;;;13.20;6.40;;;;;;;14.02;66.04;99123.82;106013;1277;25306;-86
2022/09/07 01:38:22;;;;;;;13.90;6.30;;;;;;;13.97;66.04;99126.41;105926;1276;22569;-86
2022/09/07 01:41:24;;;;;;;13.20;5.60;;;;;;;13.94;66.17;99120.27;105945;1276;24247;-85
2022/09/07 01:44:44;;;;;;;11.80;5.10;;;;;;;13.95;66.24;99116.63;105776;1278;24275;-86
2022/09/07 01:47:39;;;;;;;11.80;5.70;;;;;;;13.93;66.19;99109.11;106019;1276;22538;-88
2022/09/07 01:50:51;;;;;;;14.20;5.60;;;;;;;13.91;66.28;99105.08;105841;1277;22560;-90
2022/09/07 01:53:25;;;;;;;13.00;5.80;;;;;;;13.93;66.31;99104.40;105866;1276;24296;-84
2022/09/07 01:56:14;;;;;;;15.20;6.20;;;;;;;13.89;66.30;99105.28;105944;1277;22560;-88
2022/09/07 01:58:46;;;;;;;12.30;6.00;;;;;;;13.82;66.23;99102.30;105940;1276;22567;-86
2022/09/07 02:01:54;;;;;;;13.80;6.20;;;;;;;13.74;66.23;99100.27;105797;1277;22543;-86
2022/09/07 02:04:55;;;;;;;11.50;5.60;;;;;;;13.67;66.32;99104.45;105962;1276;22534;-88
2022/09/07 02:07:49;;;;;;;13.10;7.00;;;;;;;13.65;66.45;99105.92;105928;1279;25502;-86
2022/09/07 02:10:34;;;;;;;13.80;6.20;;;;;;;13.66;66.48;99109.94;105934;1277;24297;-88
2022/09/07 02:13:09;;;;;;;18.10;5.90;;;;;;;13.67;66.56;99109.63;105758;1280;22538;-85
2022/09/07 02:15:46;;;;;;;12.90;5.90;;;;;;;13.69;66.54;99110.35;106063;1276;22551;-85
2022/09/07 02:18:15;;;;;;;15.10;5.40;;;;;;;13.74;66.81;99109.39;106033;1276;25280;-86
2022/09/07 02:20:55;;;;;;;14.10;6.10;;;;;;;13.78;66.69;99104.40;105929;1277;25671;-86
2022/09/07 02:23:31;;;;;;;12.60;6.20;;;;;;;13.81;66.77;99102.78;105961;1276;23165;-86
2022/09/07 02:26:02;;;;;;;16.30;6.20;;;;;;;13.80;66.75;99099.07;106147;1277;25509;-84
2022/09/07 02:28:33;;;;;;;10.90;5.60;;;;;;;13.79;66.71;99097.14;105949;1277;22559;-86
2022/09/07 02:31:03;;;;;;;11.40;5.90;;;;;;;13.75;66.58;99101.11;105955;1277;22574;-87
2022/09/07 02:33:34;;;;;;;13.00;5.60;;;;;;;13.70;66.69;99104.00;106004;1277;22559;-86
2022/09/07 02:36:05;;;;;;;13.10;5.80;;;;;;;13.69;66.64;99104.64;105958;1277;24209;-87
2022/09/07 02:38:37;;;;;;;12.70;6.30;;;;;;;13.60;66.55;99105.61;105946;1279;22601;-86
2022/09/07 02:41:05;;;;;;;10.50;5.20;;;;;;;13.52;66.82;99108.70;105934;1276;22702;-87
2022/09/07 02:43:41;;;;;;;13.50;6.00;;;;;;;13.53;66.88;99106.90;105750;1280;22544;-87
2022/09/07 02:46:44;;;;;;;14.80;5.70;;;;;;;13.50;67.03;99109.15;105816;1279;23937;-87
2022/09/07 02:49:56;;;;;;;12.60;6.10;;;;;;;13.50;67.07;99112.48;105837;1280;22547;-85
2022/09/07 02:52:57;;;;;;;13.70;5.70;;;;;;;13.51;67.07;99114.40;105949;1279;22602;-85
2022/09/07 02:55:41;;;;;;;12.40;5.70;;;;;;;13.48;67.02;99110.52;105803;1280;23944;-87
2022/09/07 02:58:44;;;;;;;13.10;5.60;;;;;;;13.47;67.21;99105.97;105999;1279;24238;-89
2022/09/07 03:01:32;;;;;;;11.50;5.50;;;;;;;13.52;67.25;99107.71;105951;1278;25310;-86
2022/09/07 03:04:31;;;;;;;15.90;5.50;;;;;;;13.51;67.22;99100.81;105813;1280;25065;-86
2022/09/07 03:07:12;;;;;;;11.60;5.20;;;;;;;13.52;67.25;99099.48;105927;1280;22566;-86
2022/09/07 03:09:48;;;;;;;13.70;5.80;;;;;;;13.49;67.27;99098.31;105749;1280;24330;-88
2022/09/07 03:12:21;;;;;;;13.40;5.40;;;;;;;13.42;67.14;99099.63;106025;1278;22550;-88
2022/09/07 03:15:01;;;;;;;11.20;5.40;;;;;;;13.35;67.23;99097.50;105818;1279;22542;-91
2022/09/07 03:17:28;;;;;;;15.00;5.80;;;;;;;13.33;67.35;99096.61;105944;1278;26594;-88
2022/09/07 03:20:06;;;;;;;12.40;5.80;;;;;;;13.30;67.29;99095.99;105783;1281;22572;-87
2022/09/07 03:22:47;;;;;;;13.10;5.40;;;;;;;13.18;67.19;99093.69;105861;1278;22502;-87
2022/09/07 03:25:18;;;;;;;12.40;5.20;;;;;;;13.01;67.22;99094.35;105814;1280;26551;-87
2022/09/07 03:27:54;;;;;;;12.10;5.30;;;;;;;12.86;67.28;99094.54;105816;1280;25512;-86
2022/09/07 03:30:22;;;;;;;12.10;4.90;;;;;;;12.78;67.44;99088.02;105879;1278;25538;-85
2022/09/07 03:33:15;;;;;;;;;;;;;;;;;;;;;
2022/09/07 03:36:02;;;;;;;12.80;5.10;;;;;;;12.78;67.73;99076.22;105874;1279;22559;-87
2022/09/07 03:38:56;;;;;;;;;;;;;;;;;;;;;
2022/09/07 03:42:04;;;;;;;13.40;4.60;;;;;;;12.84;67.74;99074.70;105761;1279;22560;-87
2022/09/07 03:44:44;;;;;;;9.40;4.00;;;;;;;12.83;67.83;99071.68;105955;1278;25368;-86
2022/09/07 03:47:49;;;;;;;;;;;;;;;;;;;;;
2022/09/07 03:50:31;;;;;;;;;;;;;;;;;;;;;
2022/09/07 03:53:30;;;;;;;11.00;4.30;;;;;;;12.88;67.82;99066.25;105973;1276;22953;-86
2022/09/07 03:57:10;;;;;;;;;;;;;;;;;;;;;
2022/09/07 04:00:09;;;;;;;10.40;4.20;;;;;;;12.89;68.00;99067.63;105666;1284;22614;-86
2022/09/07 04:02:52;;;;;;;14.40;5.10;;;;;;;12.87;67.87;99067.09;105697;1284;22573;-89
2022/09/07 04:05:52;;;;;;;13.90;4.40;;;;;;;12.85;67.97;99064.38;105479;1282;22702;-87
2022/09/07 04:08:39;;;;;;;12.50;4.40;;;;;;;12.80;67.84;99060.68;105625;1284;22704;-90
2022/09/07 04:11:35;;;;;;;10.10;4.20;;;;;;;12.80;67.99;99059.77;105252;1286;25501;-86
2022/09/07 04:14:16;;;;;;;15.20;4.50;;;;;;;12.83;68.01;99054.92;105395;1285;22576;-87
2022/09/07 04:16:49;;;;;;;11.90;4.60;;;;;;;12.85;68.00;99053.30;105282;1285;24235;-87
2022/09/07 04:19:34;;;;;;;11.50;4.40;;;;;;;12.82;67.95;99055.17;105482;1285;23331;-86
2022/09/07 04:22:04;;;;;;;10.80;4.20;;;;;;;12.80;68.07;99054.44;105532;1285;22738;-86
2022/09/07 04:24:37;;;;;;;12.00;4.70;;;;;;;12.79;68.09;99049.55;105310;1282;25404;-86
2022/09/07 04:27:07;;;;;;;13.40;4.80;;;;;;;12.77;68.12;99050.06;105588;1283;22509;-89
2022/09/07 04:29:37;;;;;;;12.60;4.50;;;;;;;12.74;68.15;99049.91;105309;1283;22732;-88
2022/09/07 04:32:09;;;;;;;10.90;4.60;;;;;;;12.75;68.19;99049.88;105636;1285;22902;-86
2022/09/07 04:34:41;;;;;;;11.60;4.60;;;;;;;12.77;68.20;99051.86;105571;1282;25499;-90
2022/09/07 04:37:09;;;;;;;11.00;4.50;;;;;;;12.79;68.30;99059.69;105720;1279;25532;-87
2022/09/07 04:39:41;;;;;;;13.60;5.20;;;;;;;12.81;68.29;99062.40;105852;1280;22679;-87
2022/09/07 04:42:10;;;;;;;11.30;4.60;;;;;;;12.84;68.34;99065.37;105855;1282;22553;-91
2022/09/07 04:44:54;;;;;;;10.40;5.10;;;;;;;12.86;68.30;99063.42;105816;1279;22616;-87
2022/09/07 04:47:22;;;;;;;9.70;4.50;;;;;;;12.86;68.37;99064.51;105768;1279;25573;-86
2022/09/07 04:49:58;;;;;;;12.10;4.80;;;;;;;12.88;68.43;99061.50;105880;1280;23510;-85
2022/09/07 04:52:27;;;;;;;10.80;5.40;;;;;;;12.88;68.43;99061.65;105752;1279;25439;-86
2022/09/07 04:55:00;;;;;;;11.50;4.60;;;;;;;12.89;68.39;99060.89;105687;1280;23199;-88
2022/09/07 04:57:30;;;;;;;11.00;4.30;;;;;;;12.92;68.41;99055.40;105820;1279;23909;-87
2022/09/07 05:00:01;;;;;;;14.20;4.70;;;;;;;12.97;68.41;99056.44;105751;1279;22539;-86
2022/09/07 05:02:31;;;;;;;9.40;4.20;;;;;;;13.05;68.54;99057.56;105955;1279;22565;-90
2022/09/07 05:05:05;;;;;;;8.70;4.10;;;;;;;13.14;68.49;99058.23;105918;1279;25238;-87
2022/09/07 05:07:37;;;;;;;11.10;4.50;;;;;;;13.24;68.53;99060.50;105768;1279;24275;-85
2022/09/07 05:10:10;;;;;;;13.00;4.40;;;;;;;13.34;68.51;99061.65;105883;1281;22858;-89
2022/09/07 05:12:47;;;;;;;12.90;5.10;;;;;;;13.44;68.55;99058.67;105670;1279;22854;-88
2022/09/07 05:15:30;;;;;;;10.30;4.40;;;;;;;13.50;68.40;99059.55;106271;1276;22608;-87
2022/09/07 05:18:00;;;;;;;10.70;4.50;;;;;;;13.56;68.28;99065.73;105888;1278;22650;-87
2022/09/07 05:20:33;;;;;;;12.40;5.40;;;;;;;13.60;68.24;99068.23;105829;1280;22587;-87
2022/09/07 05:23:03;;;;;;;11.20;4.60;;;;;;;13.73;68.48;99073.20;105772;1278;22531;-89
2022/09/07 05:25:36;;;;;;;15.20;5.20;;;;;;;13.89;68.50;99074.10;106723;1279;22640;-84
2022/09/07 05:28:05;;;;;;;13.20;4.50;;;;;;;14.08;68.50;99074.33;106094;1278;22543;-88
2022/09/07 05:30:35;;;;;;;11.80;4.30;;;;;;;14.26;68.59;99071.69;105474;1280;25250;-86
2022/09/07 05:33:04;;;;;;;14.20;5.20;;;;;;;14.45;68.49;99074.52;105771;1281;25286;-87
2022/09/07 05:35:39;;;;;;;17.00;5.40;;;;;;;14.61;68.42;99074.86;105749;1281;22580;-86
2022/09/07 05:38:07;;;;;;;11.40;5.40;;;;;;;14.74;68.34;99073.89;105765;1281;25362;-86
2022/09/07 05:40:36;;;;;;;12.90;5.40;;;;;;;14.87;68.26;99072.59;105779;1282;23946;-86
2022/09/07 05:43:39;;;;;;;12.90;5.50;;;;;;;15.02;68.41;99073.02;105581;1279;25326;-85
2022/09/07 05:46:27;;;;;;;14.70;5.40;;;;;;;15.19;68.26;99068.08;105584;1280;24194;-85
2022/09/07 05:48:56;;;;;;;13.70;5.50;;;;;;;15.25;68.15;99067.17;105765;1280;25367;-86
2022/09/07 05:51:23;;;;;;;14.40;5.80;;;;;;;15.28;68.11;99067.42;107184;1280;25313;-86
2022/09/07 05:53:57;;;;;;;12.30;6.00;;;;;;;15.32;68.01;99065.83;106142;1278;25340;-85
2022/09/07 05:56:36;;;;;;;14.80;5.90;;;;;;;15.39;68.00;99064.45;106181;1280;22647;-86
2022/09/07 05:59:07;;;;;;;16.00;7.10;;;;;;;15.47;68.03;99064.92;106122;1280;25330;-84
2022/09/07 06:01:34;;;;;;;14.60;7.10;;;;;;;15.58;68.11;99058.92;106091;1280;22558;-82
2022/09/07 06:04:06;;;;;;;15.70;6.30;;;;;;;15.71;68.12;99062.58;105649;1281;22660;-84
2022/09/07 06:06:43;;;;;;;13.10;6.20;;;;;;;15.87;68.21;99058.16;106084;1280;22511;-85
2022/09/07 06:09:18;;;;;;;12.70;5.70;;;;;;;16.03;68.23;99059.35;105785;1281;22727;-89
2022/09/07 06:11:48;;;;;;;13.80;6.00;;;;;;;16.24;68.25;99057.17;105695;1281;22633;-87
2022/09/07 06:14:23;;;;;;;14.60;5.30;;;;;;;16.44;68.23;99057.45;105714;1279;22663;-87
2022/09/07 06:16:56;;;;;;;17.90;6.40;;;;;;;16.59;68.10;99053.64;105837;1278;25575;-85
2022/09/07 06:19:26;;;;;;;13.30;7.90;;;;;;;16.70;67.97;99053.98;105957;1281;22856;-83
2022/09/07 06:21:53;;;;;;;16.30;6.40;;;;;;;16.77;67.89;99054.77;105703;1280;22572;-83
2022/09/07 06:24:26;;;;;;;13.90;6.20;;;;;;;16.85;67.95;99054.54;105744;1281;22564;-86
2022/09/07 06:26:55;;;;;;;14.20;5.80;;;;;;;16.91;67.89;99054.07;105817;1280;22651;-86
2022/09/07 06:29:22;;;;;;;11.50;5.60;;;;;;;16.99;67.94;99055.48;105770;1280;25310;-85
2022/09/07 06:31:51;;;;;;;13.60;5.90;;;;;;;17.12;67.97;99058.15;105607;1278;22613;-84
2022/09/07 06:34:27;;;;;;;14.60;5.80;;;;;;;17.26;67.90;99053.54;105691;1278;25812;-84
2022/09/07 06:37:02;;;;;;;17.60;5.80;;;;;;;17.41;67.77;99055.95;105477;1281;22543;-83
2022/09/07 06:40:00;;;;;;;;;;;;;;;;;;;;;
2022/09/07 06:42:37;;;;;;;15.60;5.90;;;;;;;17.69;67.75;99046.84;105849;1278;22577;-85
2022/09/07 06:45:09;;;;;;;14.00;6.00;;;;;;;17.82;67.77;99043.44;105908;1277;22686;-86
2022/09/07 06:47:45;;;;;;;15.70;5.90;;;;;;;17.95;67.78;99034.99;106104;1280;22559;-84
2022/09/07 06:50:17;;;;;;;14.60;6.80;;;;;;;18.08;67.83;99036.36;105949;1278;22566;-85
2022/09/07 06:52:53;;;;;;;16.20;6.60;;;;;;;18.22;67.81;99031.19;105675;1277;25467;-85
2022/09/07 06:55:29;;;;;;;15.80;6.30;;;;;;;18.33;67.71;99029.40;106111;1281;22669;-85
2022/09/07 06:58:01;;;;;;;13.30;6.50;;;;;;;18.43;67.50;99034.02;105727;1283;22553;-86
2022/09/07 07:00:31;;;;;;;14.70;6.30;;;;;;;18.50;67.52;99031.77;105933;1277;25235;-88
2022/09/07 07:03:01;;;;;;;16.80;6.60;;;;;;;18.58;67.68;99036.92;105779;1278;22547;-84
2022/09/07 07:05:30;;;;;;;15.60;6.60;;;;;;;18.70;67.44;99038.27;105780;1282;25254;-90
2022/09/07 07:08:08;;;;;;;12.40;6.20;;;;;;;18.85;67.86;99042.55;105812;1278;22518;-85
2022/09/07 07:10:39;;;;;;;16.50;6.00;;;;;;;19.05;67.81;99049.02;105794;1278;25677;-85
2022/09/07 07:13:15;;;;;;;13.70;6.50;;;;;;;19.23;67.53;99053.92;105896;1277;22557;-85
2022/09/07 07:15:48;;;;;;;12.20;6.00;;;;;;;19.38;67.43;99057.79;105921;1278;22556;-86
2022/09/07 07:18:22;;;;;;;14.00;6.50;;;;;;;19.44;67.30;99060.30;105787;1283;25491;-85
2022/09/07 07:20:51;;;;;;;14.90;6.80;;;;;;;19.44;67.03;99059.45;105843;1281;22636;-82
2022/09/07 07:23:23;;;;;;;13.20;6.50;;;;;;;19.49;67.24;99060.67;105774;1278;24200;-86
2022/09/07 07:26:02;;;;;;;16.80;6.20;;;;;;;19.61;67.48;99060.48;105845;1281;25548;-86
2022/09/07 07:28:50;;;;;;;14.90;6.40;;;;;;;19.80;67.62;99056.30;105716;1278;25201;-83
2022/09/07 07:31:35;;;;;;;11.40;5.60;;;;;;;19.95;67.22;99054.39;105837;1281;25478;-86
2022/09/07 07:34:09;;;;;;;13.40;6.30;;;;;;;20.07;67.25;99049.11;105938;1278;24401;-86
2022/09/07 07:36:36;;;;;;;11.20;5.90;;;;;;;20.24;67.31;99044.12;105762;1284;24214;-86
2022/09/07 07:39:12;;;;;;;15.10;6.60;;;;;;;20.38;67.26;99041.96;105770;1281;22624;-83
2022/09/07 07:41:57;;;;;;;12.80;5.20;;;;;;;20.44;66.84;99038.88;105787;1283;22578;-83
2022/09/07 07:44:29;;;;;;;12.70;5.80;;;;;;;20.51;66.96;99043.98;105911;1278;22544;-88
2022/09/07 07:47:01;;;;;;;11.70;5.50;;;;;;;20.62;66.96;99040.23;105835;1278;24386;-86
2022/09/07 07:49:37;;;;;;;12.30;5.50;;;;;;;20.72;66.89;99040.08;105914;1278;22618;-85
2022/09/07 07:52:06;;;;;;;12.10;5.70;;;;;;;20.83;66.81;99041.77;105822;1278;25555;-83
2022/09/07 07:54:36;;;;;;;12.20;5.40;;;;;;;20.90;66.68;99040.28;105819;1278;22694;-82
2022/09/07 07:57:26;;;;;;;;;;;;;;;;;;;;;
2022/09/07 07:59:53;;;;;;;12.20;5.70;;;;;;;21.12;66.81;99041.21;105834;1278;23991;-81
2022/09/07 08:02:24;;;;;;;12.00;5.70;;;;;;;21.23;66.67;99038.67;105756;1281;22648;-84
2022/09/07 08:04:53;;;;;;;13.30;5.30;;;;;;;21.33;66.64;99039.22;105819;1278;22918;-84
2022/09/07 08:07:20;;;;;;;12.80;5.10;;;;;;;21.44;66.71;99035.92;105754;1281;22556;-85
2022/09/07 08:09:48;;;;;;;12.10;5.20;;;;;;;21.56;66.46;99036.89;105842;1281;22558;-84
2022/09/07 08:12:18;;;;;;;12.70;5.60;;;;;;;21.61;66.40;99036.10;105831;1281;22538;-84
2022/09/07 08:14:47;;;;;;;11.50;5.00;;;;;;;21.69;66.33;99029.55;105859;1281;22629;-83
2022/09/07 08:17:16;;;;;;;14.30;4.70;;;;;;;21.78;66.35;99031.01;105797;1275;24371;-83
2022/09/07 08:19:44;;;;;;;12.90;5.10;;;;;;;21.88;66.41;99034.48;105842;1278;24419;-86
2022/09/07 08:22:11;;;;;;;12.40;4.80;;;;;;;22.02;66.38;99031.54;105727;1278;22706;-84
2022/09/07 08:24:44;;;;;;;10.90;5.10;;;;;;;22.14;66.09;99036.42;105593;1278;24280;-86
2022/09/07 08:27:17;;;;;;;11.10;4.90;;;;;;;22.20;65.98;99029.75;105776;1278;25583;-83
2022/09/07 08:29:48;;;;;;;10.70;4.80;;;;;;;22.24;65.82;99028.45;105775;1278;22539;-84
2022/09/07 08:32:17;;;;;;;14.30;5.00;;;;;;;22.24;65.91;99026.02;105936;1277;24402;-86
2022/09/07 08:34:47;;;;;;;10.60;4.90;;;;;;;22.28;65.93;99021.65;105799;1278;22577;-81
2022/09/07 08:37:14;;;;;;;11.00;4.90;;;;;;;22.36;65.89;99022.48;105719;1278;22941;-83
2022/09/07 08:39:42;;;;;;;11.60;4.90;;;;;;;22.44;65.60;99017.60;105739;1282;22585;-87
2022/09/07 08:42:45;;;;;;;10.80;4.70;;;;;;;22.47;65.34;99019.40;105731;1278;23948;-85
2022/09/07 08:45:23;;;;;;;11.50;4.50;;;;;;;22.54;65.46;99021.05;105886;1278;22620;-86
2022/09/07 08:47:51;;;;;;;10.30;4.50;;;;;;;22.63;65.50;99012.86;105788;1278;22669;-84
2022/09/07 08:50:27;;;;;;;11.10;4.30;;;;;;;22.75;65.63;99007.90;105848;1278;22553;-79
2022/09/07 08:53:07;;;;;;;11.30;4.50;;;;;;;22.88;65.38;98997.99;105738;1280;24404;-85
2022/09/07 08:56:01;;;;;;;12.90;4.50;;;;;;;22.99;65.20;98989.88;105752;1278;22851;-79
2022/09/07 08:58:50;;;;;;;10.20;4.30;;;;;;;23.12;65.37;98988.23;105804;1278;24365;-84
2022/09/07 09:01:27;;;;;;;12.10;4.80;;;;;;;23.20;65.00;98985.55;105932;1278;25290;-82
2022/09/07 09:03:54;;;;;;;10.90;4.80;;;;;;;23.26;64.83;98987.70;105910;1278;25233;-79
2022/09/07 09:06:43;;;;;;;11.10;4.70;;;;;;;23.27;64.61;98983.98;105825;1280;24323;-88
2022/09/07 09:09:19;;;;;;;11.00;4.20;;;;;;;23.28;64.42;98982.45;105851;1278;22660;-83
2022/09/07 09:11:56;;;;;;;9.60;4.00;;;;;;;23.28;64.35;98979.75;105814;1278;24251;-86
2022/09/07 09:14:45;;;;;;;13.00;4.20;;;;;;;23.28;64.68;98977.16;105900;1278;23161;-83
2022/09/07 09:17:43;;;;;;;9.50;4.00;;;;;;;23.31;64.15;98975.48;105817;1277;22534;-84
2022/09/07 09:20:31;;;;;;;11.20;4.10;;;;;;;23.37;64.53;98976.95;105669;1278;25385;-82
2022/09/07 09:23:11;;;;;;;10.00;4.60;;;;;;;23.56;64.66;98974.72;105774;1281;22549;-80
2022/09/07 09:26:11;;;;;;;10.60;4.70;;;;;;;23.66;64.06;98973.10;105750;1277;24215;-82
2022/09/07 09:28:38;;;;;;;11.40;3.90;;;;;;;23.72;63.93;98979.95;105827;1278;22553;-86
2022/09/07 09:31:11;;;;;;;11.20;4.10;;;;;;;23.86;64.26;98978.02;105741;1278;25236;-76
2022/09/07 09:34:03;;;;;;;12.20;3.90;;;;;;;24.00;63.99;98973.05;105914;1278;25519;-82
2022/09/07 09:36:33;;;;;;;10.30;3.60;;;;;;;24.09;63.86;98967.14;105662;1278;25831;-78
2022/09/07 09:39:25;;;;;;;9.00;3.80;;;;;;;24.25;63.98;98970.04;105699;1281;22532;-87
2022/09/07 09:41:54;;;;;;;12.00;3.90;;;;;;;24.45;63.89;98974.01;105829;1280;22847;-82
2022/09/07 09:44:26;;;;;;;9.00;3.90;;;;;;;24.60;63.51;98973.58;105809;1278;24282;-83
2022/09/07 09:46:55;;;;;;;10.70;4.20;;;;;;;24.69;63.43;98969.29;105625;1278;23070;-82
2022/09/07 09:49:27;;;;;;;9.50;4.30;;;;;;;24.77;63.18;98970.42;105655;1280;22576;-83
2022/09/07 09:51:56;;;;;;;9.10;4.30;;;;;;;24.83;63.12;98971.90;105699;1278;24404;-83
2022/09/07 09:54:45;;;;;;;11.30;4.00;;;;;;;24.88;62.83;98970.92;105782;1278;25416;-84
2022/09/07 09:57:49;;;;;;;8.50;3.80;;;;;;;24.96;63.09;98967.54;105725;1278;22562;-85
2022/09/07 10:00:23;;;;;;;8.80;4.10;;;;;;;25.13;63.00;98962.50;105759;1277;22597;-83
2022/09/07 10:03:04;;;;;;;10.70;4.20;;;;;;;25.27;63.02;98962.06;105934;1277;24210;-82
2022/09/07 10:05:37;;;;;;;10.20;4.20;;;;;;;25.43;62.93;98956.04;105753;1281;22766;-81
2022/09/07 10:08:23;;;;;;;8.90;4.10;;;;;;;25.53;62.60;98957.90;105821;1278;23138;-86
2022/09/07 10:10:55;;;;;;;8.30;4.10;;;;;;;25.60;62.87;98957.77;105849;1277;25330;-82
2022/09/07 10:13:36;;;;;;;9.00;4.50;;;;;;;25.69;62.53;98958.91;105849;1275;22539;-83
2022/09/07 10:16:06;;;;;;;11.80;4.90;;;;;;;25.72;62.57;98963.14;105702;1280;22543;-83
2022/09/07 10:18:56;;;;;;;9.70;4.20;;;;;;;25.73;62.50;98963.70;105660;1277;22624;-83
2022/09/07 10:21:26;;;;;;;8.90;4.60;;;;;;;25.76;62.30;98964.12;105869;1278;25248;-79
2022/09/07 10:24:11;;;;;;;8.60;4.20;;;;;;;25.82;62.10;98957.30;105781;1278;25257;-82
2022/09/07 10:26:47;;;;;;;8.80;4.60;;;;;;;25.84;61.95;98948.42;105796;1280;25248;-83
2022/09/07 10:29:28;;;;;;;11.00;4.60;;;;;;;25.95;61.95;98945.09;105751;1278;22551;-78
2022/09/07 10:32:09;;;;;;;9.50;4.20;;;;;;;26.01;61.78;98937.58;105834;1277;22766;-83
2022/09/07 10:34:35;;;;;;;8.80;4.10;;;;;;;26.05;61.73;98933.29;105793;1277;22631;-84
2022/09/07 10:37:05;;;;;;;9.60;4.60;;;;;;;26.16;62.09;98932.67;105950;1277;24845;-81
2022/09/07 10:39:41;;;;;;;10.50;5.00;;;;;;;26.29;61.93;98933.98;106002;1277;22630;-83
2022/09/07 10:42:09;;;;;;;11.50;4.60;;;;;;;26.31;61.50;98934.57;106039;1277;22716;-81
2022/09/07 10:44:55;;;;;;;9.10;4.90;;;;;;;26.36;61.60;98934.23;106045;1277;24428;-81
2022/09/07 10:47:52;;;;;;;7.90;4.10;;;;;;;26.43;61.42;98931.12;105888;1277;22582;-84
2022/09/07 10:50:23;;;;;;;10.60;4.60;;;;;;;26.50;61.46;98925.02;105836;1277;25308;-78
2022/09/07 10:53:05;;;;;;;7.40;3.90;;;;;;;26.62;61.27;98928.89;105713;1277;22543;-85
2022/09/07 10:55:38;;;;;;;7.40;4.00;;;;;;;26.73;61.39;98924.35;105915;1278;22986;-83
2022/09/07 10:58:28;;;;;;;9.40;4.50;;;;;;;26.83;61.32;98925.14;105865;1277;22560;-83
2022/09/07 11:01:17;;;;;;;10.30;4.30;;;;;;;26.97;60.72;98924.36;105814;1278;22550;-86
2022/09/07 11:03:59;;;;;;;10.00;4.50;;;;;;;26.97;60.43;98921.11;105874;1277;24244;-76
2022/09/07 11:06:43;;;;;;;8.50;4.10;;;;;;;27.01;60.43;98923.77;106041;1277;24047;-84
2022/09/07 11:12:45;;;;;;;8.70;4.40;;;;;;;27.10;60.44;98931.97;106043;1277;22835;-83
2022/09/07 11:15:49;;;;;;;9.90;4.70;;;;;;;27.25;60.70;98934.24;106102;1277;24196;-81
2022/09/07 11:18:35;;;;;;;8.40;4.80;;;;;;;27.36;60.34;98929.27;105643;1277;24994;-83
2022/09/07 11:21:16;;;;;;;9.20;4.30;;;;;;;27.39;59.97;98930.39;105903;1277;24320;-80
2022/09/07 11:24:32;;;;;;;11.20;4.20;;;;;;;27.38;59.96;98923.52;105887;1276;25515;-86
2022/09/07 11:27:36;;;;;;;9.20;4.30;;;;;;;27.38;60.23;98918.34;105929;1277;22537;-82
2022/09/07 11:30:50;;;;;;;8.40;4.90;;;;;;;27.39;59.74;98915.54;105993;1276;24306;-85
2022/09/07 11:33:32;;;;;;;11.00;4.50;;;;;;;27.38;59.92;98918.20;105940;1277;25404;-84
2022/09/07 11:36:06;;;;;;;10.70;4.30;;;;;;;27.40;59.68;98914.52;105775;1277;24364;-87
2022/09/07 11:38:40;;;;;;;10.90;4.50;;;;;;;27.36;59.66;98913.63;106015;1277;24211;-77
2022/09/07 11:42:27;;;;;;;10.40;4.40;;;;;;;27.35;59.36;98912.15;105367;1282;24132;-82
2022/09/07 11:45:14;;;;;;;;;;;;;;;;;;;;;
2022/09/07 11:48:57;;;;;;;9.60;4.90;;;;;;;27.37;59.36;98909.28;104895;1287;24277;-83
2022/09/07 11:51:51;;;;;;;15.90;9.80;;;;;;;27.45;59.20;98909.33;104973;1287;25488;-84
2022/09/07 11:55:14;;;;;;;13.00;5.10;;;;;;;27.49;58.92;98905.52;104645;1287;25518;-83
2022/09/07 11:58:24;;;;;;;9.90;4.50;;;;;;;27.42;58.94;98905.86;104868;1287;25232;-83
2022/09/07 12:01:57;;;;;;;9.90;3.90;;;;;;;27.41;59.03;98901.43;104891;1287;25857;-83
2022/09/07 12:05:01;;;;;;;8.80;4.10;;;;;;;27.45;58.98;98898.84;105030;1287;24302;-85
2022/09/07 12:12:43;;;;;;;10.70;4.20;;;;;;;27.60;58.88;98895.67;104580;1289;22592;-83
2022/09/07 12:15:27;;;;;;;9.20;4.30;;;;;;;27.65;58.41;98893.73;105897;1276;22547;-86
2022/09/07 12:18:05;;;;;;;8.10;4.00;;;;;;;27.57;58.66;98886.51;105763;1277;25318;-81
2022/09/07 12:20:43;;;;;;;9.20;4.20;;;;;;;27.54;58.62;98886.09;105854;1276;23634;-87
2022/09/07 12:23:16;;;;;;;11.20;4.00;;;;;;;27.52;58.41;98882.02;104845;1276;1458594;-82
2022/09/07 12:25:48;;;;;;;9.60;4.30;;;;;;;27.54;58.19;98881.67;105975;1276;22551;-81
2022/09/07 12:28:42;;;;;;;8.50;4.30;;;;;;;27.54;58.41;98880.14;105870;1277;26548;-78
2022/09/07 12:31:11;;;;;;;7.70;4.20;;;;;;;27.53;58.20;98875.89;105951;1275;22537;-80
2022/09/07 12:33:39;;;;;;;8.90;4.10;;;;;;;27.51;58.23;98872.33;105776;1276;24338;-84
2022/09/07 12:36:30;;;;;;;9.10;3.90;;;;;;;27.53;58.30;98865.35;105941;1277;24272;-83
2022/09/07 12:39:20;;;;;;;8.00;3.90;;;;;;;27.57;58.30;98865.36;105881;1277;24273;-83
2022/09/07 12:41:51;;;;;;;13.50;4.20;;;;;;;27.67;58.09;98861.30;105954;1276;22571;-82
2022/09/07 12:49:19;;;;;;;10.80;3.90;;;;;;;27.72;57.83;98852.36;105535;1281;25638;-80